PWSweather.com
Personal Weather Stations
Station Observations
WOODBURYWX
Lighthouse Rd, Woodbury, Woodbury, CT 06798

Lighthouse Rd, WoodburyWoodbury, CT 06798

Lat: 41.553333, Lon: -73.224167

Elevation: 437

Station Type: Ambient Weather WS-1090

Latest ConditionsUpdated 5:57:00 AM EST Thursday, Nov 23, 2017
Currently Today's Max Today's Min Today's Average
Temperature 28.9°F-1.7°C 34.2°F1.2°C 28.9°F-1.7°C 31.6°F-0.2°C
Dew Point 18.6°F-7.4°C 22.7°F-5.2°C 18.5°F-7.5°C 20.8°F-6.2°C
Winds 1.0 mph NE1.6 kmh NE 5.6 mph E9.0 kmh E - 2.8 mph 4.5 kmh
Wind Gusts 2.6 mph4.2 kmh 9.6 mph15.4 kmh - -
Humidity 65% 68% 61% 64%
Pressure 30.06 in1017.9 mb 30.13 in1020.3 mb 30.05 in1017.6 mb -
Hour Temp Dew Point Humidity Winds Wind Gusts Pressure Precip Precip Rate Daily Precip Total
05:57 AM 28.9°F-1.7°C 18.6°F-7.4°C 65% 1.0 mph NE1.6 kmh NE 2.6 mph4.2 kmh 30.06 in1017.9 mb 0.00 in0.0 mm 0.00 in0.0 mm 0.00 in0.0 mm
05:56 AM 29.1°F-1.6°C 18.8°F-7.3°C 65% 0.8 mph ESE1.3 kmh ESE 2.6 mph4.2 kmh 30.07 in1018.3 mb 0.00 in0.0 mm 0.00 in0.0 mm 0.00 in0.0 mm
05:55 AM 29.1°F-1.6°C 18.8°F-7.3°C 65% 1.3 mph NNE2.1 kmh NNE 5.2 mph8.4 kmh 30.07 in1018.3 mb 0.00 in0.0 mm 0.00 in0.0 mm 0.00 in0.0 mm
05:54 AM 29.1°F-1.6°C 18.8°F-7.3°C 65% 1.7 mph NNE2.7 kmh NNE 5.2 mph8.4 kmh 30.07 in1018.3 mb 0.00 in0.0 mm 0.00 in0.0 mm 0.00 in0.0 mm
05:53 AM 29.1°F-1.6°C 18.8°F-7.3°C 65% 1.9 mph NNE3.1 kmh NNE 5.2 mph8.4 kmh 30.07 in1018.3 mb 0.00 in0.0 mm 0.00 in0.0 mm 0.00 in0.0 mm
05:52 AM 29.3°F-1.5°C 19.0°F-7.2°C 65% 2.1 mph N3.4 kmh N 5.2 mph8.4 kmh 30.07 in1018.3 mb 0.00 in0.0 mm 0.00 in0.0 mm 0.00 in0.0 mm
05:51 AM 29.1°F-1.6°C 18.5°F-7.5°C 64% 2.1 mph N3.4 kmh N 5.2 mph8.4 kmh 30.06 in1017.9 mb 0.00 in0.0 mm 0.00 in0.0 mm 0.00 in0.0 mm
05:50 AM 29.3°F-1.5°C 18.6°F-7.4°C 64% 2.0 mph N3.2 kmh N 5.2 mph8.4 kmh 30.07 in1018.3 mb 0.00 in0.0 mm 0.00 in0.0 mm 0.00 in0.0 mm
05:49 AM 29.3°F-1.5°C 18.6°F-7.4°C 64% 2.1 mph N3.4 kmh N 5.2 mph8.4 kmh 30.07 in1018.3 mb 0.00 in0.0 mm 0.00 in0.0 mm 0.00 in0.0 mm
05:48 AM 29.3°F-1.5°C 18.6°F-7.4°C 64% 2.3 mph N3.7 kmh N 5.2 mph8.4 kmh 30.06 in1017.9 mb 0.00 in0.0 mm 0.00 in0.0 mm 0.00 in0.0 mm
05:47 AM 29.5°F-1.4°C 18.8°F-7.3°C 64% 2.4 mph N3.9 kmh N 5.2 mph8.4 kmh 30.06 in1017.9 mb 0.00 in0.0 mm 0.00 in0.0 mm 0.00 in0.0 mm
05:46 AM 29.5°F-1.4°C 18.8°F-7.3°C 64% 2.6 mph N4.2 kmh N 5.2 mph8.4 kmh 30.06 in1017.9 mb 0.00 in0.0 mm 0.00 in0.0 mm 0.00 in0.0 mm
05:45 AM 29.5°F-1.4°C 18.8°F-7.3°C 64% 2.3 mph NNE3.7 kmh NNE 5.2 mph8.4 kmh 30.06 in1017.9 mb 0.00 in0.0 mm 0.00 in0.0 mm 0.00 in0.0 mm
05:44 AM 29.5°F-1.4°C 18.8°F-7.3°C 64% 2.2 mph NNE3.5 kmh NNE 4.4 mph7.1 kmh 30.06 in1017.9 mb 0.00 in0.0 mm 0.00 in0.0 mm 0.00 in0.0 mm
05:43 AM 29.7°F-1.3°C 19.0°F-7.2°C 64% 2.3 mph NE3.7 kmh NE 4.4 mph7.1 kmh 30.05 in1017.6 mb 0.00 in0.0 mm 0.00 in0.0 mm 0.00 in0.0 mm
05:42 AM 29.7°F-1.3°C 19.0°F-7.2°C 64% 2.2 mph ESE3.5 kmh ESE 4.4 mph7.1 kmh 30.06 in1017.9 mb 0.00 in0.0 mm 0.00 in0.0 mm 0.00 in0.0 mm
05:41 AM 29.7°F-1.3°C 19.0°F-7.2°C 64% 2.3 mph SE3.7 kmh SE 4.4 mph7.1 kmh 30.06 in1017.9 mb 0.00 in0.0 mm 0.00 in0.0 mm 0.00 in0.0 mm
05:40 AM 29.7°F-1.3°C 19.0°F-7.2°C 64% 2.7 mph ESE4.3 kmh ESE 6.1 mph9.8 kmh 30.06 in1017.9 mb 0.00 in0.0 mm 0.00 in0.0 mm 0.00 in0.0 mm
05:39 AM 29.7°F-1.3°C 19.0°F-7.2°C 64% 2.8 mph ESE4.5 kmh ESE 6.1 mph9.8 kmh 30.06 in1017.9 mb 0.00 in0.0 mm 0.00 in0.0 mm 0.00 in0.0 mm
05:38 AM 29.7°F-1.3°C 19.3°F-7.1°C 65% 3.0 mph SE4.8 kmh SE 6.1 mph9.8 kmh 30.06 in1017.9 mb 0.00 in0.0 mm 0.00 in0.0 mm 0.00 in0.0 mm
05:37 AM 29.7°F-1.3°C 19.3°F-7.1°C 65% 3.2 mph SE5.1 kmh SE 6.1 mph9.8 kmh 30.06 in1017.9 mb 0.00 in0.0 mm 0.00 in0.0 mm 0.00 in0.0 mm
05:36 AM 29.7°F-1.3°C 19.3°F-7.1°C 65% 3.1 mph SE5.0 kmh SE 6.1 mph9.8 kmh 30.05 in1017.6 mb 0.00 in0.0 mm 0.00 in0.0 mm 0.00 in0.0 mm
05:35 AM 29.7°F-1.3°C 19.3°F-7.1°C 65% 2.9 mph SSE4.7 kmh SSE 6.1 mph9.8 kmh 30.06 in1017.9 mb 0.00 in0.0 mm 0.00 in0.0 mm 0.00 in0.0 mm
05:34 AM 29.7°F-1.3°C 19.3°F-7.1°C 65% 2.6 mph SE4.2 kmh SE 6.1 mph9.8 kmh 30.06 in1017.9 mb 0.00 in0.0 mm 0.00 in0.0 mm 0.00 in0.0 mm
05:33 AM 29.7°F-1.3°C 19.3°F-7.1°C 65% 2.7 mph SE4.3 kmh SE 6.1 mph9.8 kmh 30.06 in1017.9 mb 0.00 in0.0 mm 0.00 in0.0 mm 0.00 in0.0 mm
05:32 AM 29.8°F-1.2°C 19.5°F-6.9°C 65% 2.7 mph SE4.3 kmh SE 6.1 mph9.8 kmh 30.06 in1017.9 mb 0.00 in0.0 mm 0.00 in0.0 mm 0.00 in0.0 mm
05:31 AM 29.8°F-1.2°C 19.5°F-6.9°C 65% 2.7 mph SE4.3 kmh SE 6.1 mph9.8 kmh 30.06 in1017.9 mb 0.00 in0.0 mm 0.00 in0.0 mm 0.00 in0.0 mm
05:30 AM 29.3°F-1.5°C 19.3°F-7.1°C 66% 2.4 mph SE3.9 kmh SE 4.4 mph7.1 kmh 30.06 in1017.9 mb 0.00 in0.0 mm 0.00 in0.0 mm 0.00 in0.0 mm
05:29 AM 29.3°F-1.5°C 19.3°F-7.1°C 66% 2.5 mph SE4.0 kmh SE 4.4 mph7.1 kmh 30.06 in1017.9 mb 0.00 in0.0 mm 0.00 in0.0 mm 0.00 in0.0 mm
05:28 AM 29.3°F-1.5°C 19.3°F-7.1°C 66% 2.4 mph NE3.9 kmh NE 4.4 mph7.1 kmh 30.06 in1017.9 mb 0.00 in0.0 mm 0.00 in0.0 mm 0.00 in0.0 mm
05:27 AM 29.5°F-1.4°C 19.5°F-6.9°C 66% 2.0 mph N3.2 kmh N 3.5 mph5.6 kmh 30.06 in1017.9 mb 0.00 in0.0 mm 0.00 in0.0 mm 0.00 in0.0 mm
05:26 AM 29.3°F-1.5°C 19.3°F-7.1°C 66% 1.9 mph N3.1 kmh N 3.5 mph5.6 kmh 30.06 in1017.9 mb 0.00 in0.0 mm 0.00 in0.0 mm 0.00 in0.0 mm
05:25 AM 29.3°F-1.5°C 19.3°F-7.1°C 66% 1.8 mph N2.9 kmh N 3.5 mph5.6 kmh 30.06 in1017.9 mb 0.00 in0.0 mm 0.00 in0.0 mm 0.00 in0.0 mm
05:24 AM 29.3°F-1.5°C 19.3°F-7.1°C 66% 1.7 mph N2.7 kmh N 3.5 mph5.6 kmh 30.06 in1017.9 mb 0.00 in0.0 mm 0.00 in0.0 mm 0.00 in0.0 mm
05:23 AM 29.5°F-1.4°C 19.5°F-6.9°C 66% 1.6 mph NNW2.6 kmh NNW 3.5 mph5.6 kmh 30.06 in1017.9 mb 0.00 in0.0 mm 0.00 in0.0 mm 0.00 in0.0 mm
05:22 AM 29.7°F-1.3°C 19.3°F-7.1°C 65% 1.4 mph NNW2.3 kmh NNW 3.5 mph5.6 kmh 30.06 in1017.9 mb 0.00 in0.0 mm 0.00 in0.0 mm 0.00 in0.0 mm
05:21 AM 29.7°F-1.3°C 19.3°F-7.1°C 65% 1.4 mph NNW2.3 kmh NNW 3.5 mph5.6 kmh 30.06 in1017.9 mb 0.00 in0.0 mm 0.00 in0.0 mm 0.00 in0.0 mm
05:20 AM 29.5°F-1.4°C 19.2°F-7.1°C 65% 1.5 mph E2.4 kmh E 3.5 mph5.6 kmh 30.06 in1017.9 mb 0.00 in0.0 mm 0.00 in0.0 mm 0.00 in0.0 mm
05:19 AM 29.5°F-1.4°C 19.2°F-7.1°C 65% 1.8 mph S2.9 kmh S 5.2 mph8.4 kmh 30.05 in1017.6 mb 0.00 in0.0 mm 0.00 in0.0 mm 0.00 in0.0 mm
05:18 AM 29.5°F-1.4°C 19.2°F-7.1°C 65% 2.1 mph S3.4 kmh S 5.2 mph8.4 kmh 30.07 in1018.3 mb 0.00 in0.0 mm 0.00 in0.0 mm 0.00 in0.0 mm
05:17 AM 29.5°F-1.4°C 19.2°F-7.1°C 65% 2.2 mph S3.5 kmh S 5.2 mph8.4 kmh 30.06 in1017.9 mb 0.00 in0.0 mm 0.00 in0.0 mm 0.00 in0.0 mm
05:16 AM 29.5°F-1.4°C 19.2°F-7.1°C 65% 2.4 mph S3.9 kmh S 5.2 mph8.4 kmh 30.07 in1018.3 mb 0.00 in0.0 mm 0.00 in0.0 mm 0.00 in0.0 mm
05:15 AM 29.7°F-1.3°C 19.3°F-7.1°C 65% 2.7 mph S4.3 kmh S 5.2 mph8.4 kmh 30.06 in1017.9 mb 0.00 in0.0 mm 0.00 in0.0 mm 0.00 in0.0 mm
05:14 AM 29.7°F-1.3°C 19.3°F-7.1°C 65% 2.9 mph S4.7 kmh S 5.2 mph8.4 kmh 30.07 in1018.3 mb 0.00 in0.0 mm 0.00 in0.0 mm 0.00 in0.0 mm
05:13 AM 29.7°F-1.3°C 19.3°F-7.1°C 65% 2.9 mph S4.7 kmh S 5.2 mph8.4 kmh 30.07 in1018.3 mb 0.00 in0.0 mm 0.00 in0.0 mm 0.00 in0.0 mm
05:12 AM 29.8°F-1.2°C 19.5°F-6.9°C 65% 2.7 mph SSE4.3 kmh SSE 5.2 mph8.4 kmh 30.06 in1017.9 mb 0.00 in0.0 mm 0.00 in0.0 mm 0.00 in0.0 mm
05:11 AM 29.8°F-1.2°C 19.5°F-6.9°C 65% 2.7 mph SSE4.3 kmh SSE 5.2 mph8.4 kmh 30.07 in1018.3 mb 0.00 in0.0 mm 0.00 in0.0 mm 0.00 in0.0 mm
05:10 AM 29.7°F-1.3°C 19.3°F-7.1°C 65% 2.5 mph S4.0 kmh S 5.2 mph8.4 kmh 30.07 in1018.3 mb 0.00 in0.0 mm 0.00 in0.0 mm 0.00 in0.0 mm
05:09 AM 29.7°F-1.3°C 19.3°F-7.1°C 65% 2.1 mph S3.4 kmh S 5.2 mph8.4 kmh 30.07 in1018.3 mb 0.00 in0.0 mm 0.00 in0.0 mm 0.00 in0.0 mm
05:08 AM 29.7°F-1.3°C 19.3°F-7.1°C 65% 2.1 mph N3.4 kmh N 4.4 mph7.1 kmh 30.07 in1018.3 mb 0.00 in0.0 mm 0.00 in0.0 mm 0.00 in0.0 mm
05:07 AM 29.8°F-1.2°C 19.5°F-6.9°C 65% 2.3 mph NNW3.7 kmh NNW 4.4 mph7.1 kmh 30.07 in1018.3 mb 0.00 in0.0 mm 0.00 in0.0 mm 0.00 in0.0 mm
05:06 AM 29.8°F-1.2°C 19.5°F-6.9°C 65% 2.0 mph N3.2 kmh N 4.4 mph7.1 kmh 30.07 in1018.3 mb 0.00 in0.0 mm 0.00 in0.0 mm 0.00 in0.0 mm
05:05 AM 30.0°F-1.1°C 19.3°F-7.1°C 64% 2.0 mph N3.2 kmh N 4.4 mph7.1 kmh 30.07 in1018.3 mb 0.00 in0.0 mm 0.00 in0.0 mm 0.00 in0.0 mm
05:04 AM 30.0°F-1.1°C 19.3°F-7.1°C 64% 2.1 mph N3.4 kmh N 4.4 mph7.1 kmh 30.07 in1018.3 mb 0.00 in0.0 mm 0.00 in0.0 mm 0.00 in0.0 mm
05:03 AM 30.0°F-1.1°C 19.7°F-6.8°C 65% 2.3 mph N3.7 kmh N 4.4 mph7.1 kmh 30.07 in1018.3 mb 0.00 in0.0 mm 0.00 in0.0 mm 0.00 in0.0 mm
05:02 AM 30.4°F-0.9°C 19.3°F-7.1°C 63% 2.7 mph N4.3 kmh N 7.0 mph11.3 kmh 30.07 in1018.3 mb 0.00 in0.0 mm 0.00 in0.0 mm 0.00 in0.0 mm
05:01 AM 30.4°F-0.9°C 19.3°F-7.1°C 63% 2.9 mph N4.7 kmh N 7.0 mph11.3 kmh 30.08 in1018.6 mb 0.00 in0.0 mm 0.00 in0.0 mm 0.00 in0.0 mm
05:00 AM 30.4°F-0.9°C 19.3°F-7.1°C 63% 3.0 mph NNW4.8 kmh NNW 7.0 mph11.3 kmh 30.08 in1018.6 mb 0.00 in0.0 mm 0.00 in0.0 mm 0.00 in0.0 mm
04:59 AM 30.2°F-1.0°C 19.1°F-7.2°C 63% 3.1 mph NNW5.0 kmh NNW 7.0 mph11.3 kmh 30.08 in1018.6 mb 0.00 in0.0 mm 0.00 in0.0 mm 0.00 in0.0 mm
04:58 AM 29.8°F-1.2°C 19.5°F-6.9°C 65% 3.1 mph NW5.0 kmh NW 7.0 mph11.3 kmh 30.08 in1018.6 mb 0.00 in0.0 mm 0.00 in0.0 mm 0.00 in0.0 mm
04:57 AM 30.0°F-1.1°C 19.7°F-6.8°C 65% 3.0 mph WNW4.8 kmh WNW 7.0 mph11.3 kmh 30.08 in1018.6 mb 0.00 in0.0 mm 0.00 in0.0 mm 0.00 in0.0 mm
04:56 AM 30.0°F-1.1°C 19.7°F-6.8°C 65% 3.3 mph W5.3 kmh W 7.0 mph11.3 kmh 30.08 in1018.6 mb 0.00 in0.0 mm 0.00 in0.0 mm 0.00 in0.0 mm
04:55 AM 30.2°F-1.0°C 19.5°F-6.9°C 64% 3.4 mph WSW5.5 kmh WSW 7.0 mph11.3 kmh 30.08 in1018.6 mb 0.00 in0.0 mm 0.00 in0.0 mm 0.00 in0.0 mm
04:54 AM 30.2°F-1.0°C 19.5°F-6.9°C 64% 3.4 mph WSW5.5 kmh WSW 7.0 mph11.3 kmh 30.09 in1019.0 mb 0.00 in0.0 mm 0.00 in0.0 mm 0.00 in0.0 mm
04:53 AM 30.2°F-1.0°C 19.5°F-6.9°C 64% 3.4 mph SW5.5 kmh SW 7.0 mph11.3 kmh 30.08 in1018.6 mb 0.00 in0.0 mm 0.00 in0.0 mm 0.00 in0.0 mm
04:52 AM 29.8°F-1.2°C 19.5°F-6.9°C 65% 3.4 mph SSW5.5 kmh SSW 7.0 mph11.3 kmh 30.08 in1018.6 mb 0.00 in0.0 mm 0.00 in0.0 mm 0.00 in0.0 mm
04:51 AM 30.0°F-1.1°C 19.7°F-6.8°C 65% 3.3 mph S5.3 kmh S 5.2 mph8.4 kmh 30.09 in1019.0 mb 0.00 in0.0 mm 0.00 in0.0 mm 0.00 in0.0 mm
04:50 AM 30.2°F-1.0°C 19.5°F-6.9°C 64% 3.4 mph S5.5 kmh S 5.2 mph8.4 kmh 30.08 in1018.6 mb 0.00 in0.0 mm 0.00 in0.0 mm 0.00 in0.0 mm
04:49 AM 30.2°F-1.0°C 19.5°F-6.9°C 64% 3.4 mph SSE5.5 kmh SSE 5.2 mph8.4 kmh 30.07 in1018.3 mb 0.00 in0.0 mm 0.00 in0.0 mm 0.00 in0.0 mm
04:48 AM 30.0°F-1.1°C 19.7°F-6.8°C 65% 3.2 mph SSE5.1 kmh SSE 5.2 mph8.4 kmh 30.08 in1018.6 mb 0.00 in0.0 mm 0.00 in0.0 mm 0.00 in0.0 mm
04:47 AM 30.0°F-1.1°C 19.7°F-6.8°C 65% 3.2 mph SE5.1 kmh SE 5.2 mph8.4 kmh 30.07 in1018.3 mb 0.00 in0.0 mm 0.00 in0.0 mm 0.00 in0.0 mm
04:46 AM 29.8°F-1.2°C 19.5°F-6.9°C 65% 3.2 mph ESE5.1 kmh ESE 5.2 mph8.4 kmh 30.07 in1018.3 mb 0.00 in0.0 mm 0.00 in0.0 mm 0.00 in0.0 mm
04:45 AM 30.0°F-1.1°C 19.7°F-6.8°C 65% 3.2 mph E5.1 kmh E 5.2 mph8.4 kmh 30.07 in1018.3 mb 0.00 in0.0 mm 0.00 in0.0 mm 0.00 in0.0 mm
04:44 AM 30.0°F-1.1°C 19.7°F-6.8°C 65% 3.7 mph NE6.0 kmh NE 7.0 mph11.3 kmh 30.07 in1018.3 mb 0.00 in0.0 mm 0.00 in0.0 mm 0.00 in0.0 mm
04:43 AM 30.0°F-1.1°C 19.7°F-6.8°C 65% 3.7 mph NE6.0 kmh NE 7.0 mph11.3 kmh 30.06 in1017.9 mb 0.00 in0.0 mm 0.00 in0.0 mm 0.00 in0.0 mm
04:42 AM 30.2°F-1.0°C 19.5°F-6.9°C 64% 3.9 mph NE6.3 kmh NE 7.0 mph11.3 kmh 30.07 in1018.3 mb 0.00 in0.0 mm 0.00 in0.0 mm 0.00 in0.0 mm
04:41 AM 30.2°F-1.0°C 19.5°F-6.9°C 64% 4.0 mph NNE6.4 kmh NNE 7.0 mph11.3 kmh 30.06 in1017.9 mb 0.00 in0.0 mm 0.00 in0.0 mm 0.00 in0.0 mm
04:40 AM 30.4°F-0.9°C 19.6°F-6.9°C 64% 3.8 mph NNE6.1 kmh NNE 7.0 mph11.3 kmh 30.07 in1018.3 mb 0.00 in0.0 mm 0.00 in0.0 mm 0.00 in0.0 mm
04:39 AM 30.4°F-0.9°C 19.6°F-6.9°C 64% 3.6 mph NNE5.8 kmh NNE 7.0 mph11.3 kmh 30.06 in1017.9 mb 0.00 in0.0 mm 0.00 in0.0 mm 0.00 in0.0 mm
04:38 AM 30.4°F-0.9°C 19.6°F-6.9°C 64% 3.6 mph NNE5.8 kmh NNE 7.0 mph11.3 kmh 30.07 in1018.3 mb 0.00 in0.0 mm 0.00 in0.0 mm 0.00 in0.0 mm
04:37 AM 30.4°F-0.9°C 19.6°F-6.9°C 64% 3.4 mph NNE5.5 kmh NNE 7.0 mph11.3 kmh 30.07 in1018.3 mb 0.00 in0.0 mm 0.00 in0.0 mm 0.00 in0.0 mm
04:36 AM 30.4°F-0.9°C 19.6°F-6.9°C 64% 3.0 mph NNE4.8 kmh NNE 7.0 mph11.3 kmh 30.07 in1018.3 mb 0.00 in0.0 mm 0.00 in0.0 mm 0.00 in0.0 mm
04:35 AM 30.4°F-0.9°C 20.0°F-6.7°C 65% 2.6 mph N4.2 kmh N 7.0 mph11.3 kmh 30.07 in1018.3 mb 0.00 in0.0 mm 0.00 in0.0 mm 0.00 in0.0 mm
04:34 AM 30.0°F-1.1°C 20.0°F-6.7°C 66% 2.0 mph NNE3.2 kmh NNE 5.2 mph8.4 kmh 30.07 in1018.3 mb 0.00 in0.0 mm 0.00 in0.0 mm 0.00 in0.0 mm
04:33 AM 30.2°F-1.0°C 19.8°F-6.8°C 65% 1.9 mph NNE3.1 kmh NNE 5.2 mph8.4 kmh 30.08 in1018.6 mb 0.00 in0.0 mm 0.00 in0.0 mm 0.00 in0.0 mm
04:32 AM 30.2°F-1.0°C 19.8°F-6.8°C 65% 1.7 mph NNE2.7 kmh NNE 5.2 mph8.4 kmh 30.08 in1018.6 mb 0.00 in0.0 mm 0.00 in0.0 mm 0.00 in0.0 mm
04:31 AM 30.2°F-1.0°C 19.5°F-6.9°C 64% 1.5 mph E2.4 kmh E 4.4 mph7.1 kmh 30.08 in1018.6 mb 0.00 in0.0 mm 0.00 in0.0 mm 0.00 in0.0 mm
04:30 AM 30.2°F-1.0°C 19.8°F-6.8°C 65% 1.7 mph ESE2.7 kmh ESE 3.5 mph5.6 kmh 30.08 in1018.6 mb 0.00 in0.0 mm 0.00 in0.0 mm 0.00 in0.0 mm
04:29 AM 30.2°F-1.0°C 19.8°F-6.8°C 65% 2.0 mph SE3.2 kmh SE 3.5 mph5.6 kmh 30.08 in1018.6 mb 0.00 in0.0 mm 0.00 in0.0 mm 0.00 in0.0 mm
04:28 AM 30.2°F-1.0°C 19.8°F-6.8°C 65% 2.2 mph SE3.5 kmh SE 3.5 mph5.6 kmh 30.08 in1018.6 mb 0.00 in0.0 mm 0.00 in0.0 mm 0.00 in0.0 mm
04:27 AM 30.2°F-1.0°C 19.8°F-6.8°C 65% 2.4 mph SE3.9 kmh SE 3.5 mph5.6 kmh 30.09 in1019.0 mb 0.00 in0.0 mm 0.00 in0.0 mm 0.00 in0.0 mm
04:26 AM 30.4°F-0.9°C 20.0°F-6.7°C 65% 2.7 mph SSE4.3 kmh SSE 3.5 mph5.6 kmh 30.09 in1019.0 mb 0.00 in0.0 mm 0.00 in0.0 mm 0.00 in0.0 mm
04:25 AM 30.4°F-0.9°C 20.0°F-6.7°C 65% 2.9 mph S4.7 kmh S 3.5 mph5.6 kmh 30.09 in1019.0 mb 0.00 in0.0 mm 0.00 in0.0 mm 0.00 in0.0 mm
04:24 AM 30.2°F-1.0°C 19.8°F-6.8°C 65% 3.0 mph SSW4.8 kmh SSW 3.5 mph5.6 kmh 30.09 in1019.0 mb 0.00 in0.0 mm 0.00 in0.0 mm 0.00 in0.0 mm
04:23 AM 30.2°F-1.0°C 19.8°F-6.8°C 65% 3.0 mph SSW4.8 kmh SSW 3.5 mph5.6 kmh 30.09 in1019.0 mb 0.00 in0.0 mm 0.00 in0.0 mm 0.00 in0.0 mm
04:22 AM 30.6°F-0.8°C 20.2°F-6.6°C 65% 3.0 mph SW4.8 kmh SW 3.5 mph5.6 kmh 30.09 in1019.0 mb 0.00 in0.0 mm 0.00 in0.0 mm 0.00 in0.0 mm
04:21 AM 30.6°F-0.8°C 20.2°F-6.6°C 65% 2.9 mph SW4.7 kmh SW 3.5 mph5.6 kmh 30.09 in1019.0 mb 0.00 in0.0 mm 0.00 in0.0 mm 0.00 in0.0 mm
04:20 AM 30.6°F-0.8°C 20.2°F-6.6°C 65% 2.8 mph WSW4.5 kmh WSW 3.5 mph5.6 kmh 30.09 in1019.0 mb 0.00 in0.0 mm 0.00 in0.0 mm 0.00 in0.0 mm
04:19 AM 30.6°F-0.8°C 20.2°F-6.6°C 65% 2.8 mph WSW4.5 kmh WSW 3.5 mph5.6 kmh 30.08 in1018.6 mb 0.00 in0.0 mm 0.00 in0.0 mm 0.00 in0.0 mm
04:18 AM 30.4°F-0.9°C 20.4°F-6.4°C 66% 2.7 mph WSW4.3 kmh WSW 3.5 mph5.6 kmh 30.08 in1018.6 mb 0.00 in0.0 mm 0.00 in0.0 mm 0.00 in0.0 mm
04:17 AM 30.4°F-0.9°C 20.0°F-6.7°C 65% 2.5 mph WSW4.0 kmh WSW 3.5 mph5.6 kmh 30.09 in1019.0 mb 0.00 in0.0 mm 0.00 in0.0 mm 0.00 in0.0 mm
04:16 AM 30.4°F-0.9°C 20.0°F-6.7°C 65% 2.4 mph W3.9 kmh W 3.5 mph5.6 kmh 30.09 in1019.0 mb 0.00 in0.0 mm 0.00 in0.0 mm 0.00 in0.0 mm
04:15 AM 30.4°F-0.9°C 20.0°F-6.7°C 65% 2.7 mph WSW4.3 kmh WSW 6.1 mph9.8 kmh 30.09 in1019.0 mb 0.00 in0.0 mm 0.00 in0.0 mm 0.00 in0.0 mm
04:14 AM 30.4°F-0.9°C 20.0°F-6.7°C 65% 2.8 mph N4.5 kmh N 6.1 mph9.8 kmh 30.09 in1019.0 mb 0.00 in0.0 mm 0.00 in0.0 mm 0.00 in0.0 mm
04:13 AM 30.4°F-0.9°C 20.0°F-6.7°C 65% 2.7 mph NE4.3 kmh NE 6.1 mph9.8 kmh 30.09 in1019.0 mb 0.00 in0.0 mm 0.00 in0.0 mm 0.00 in0.0 mm
04:12 AM 30.4°F-0.9°C 20.0°F-6.7°C 65% 2.7 mph NE4.3 kmh NE 6.1 mph9.8 kmh 30.09 in1019.0 mb 0.00 in0.0 mm 0.00 in0.0 mm 0.00 in0.0 mm
04:11 AM 30.4°F-0.9°C 20.0°F-6.7°C 65% 2.8 mph NE4.5 kmh NE 6.1 mph9.8 kmh 30.10 in1019.3 mb 0.00 in0.0 mm 0.00 in0.0 mm 0.00 in0.0 mm
04:10 AM 30.4°F-0.9°C 20.0°F-6.7°C 65% 2.7 mph NE4.3 kmh NE 6.1 mph9.8 kmh 30.09 in1019.0 mb 0.00 in0.0 mm 0.00 in0.0 mm 0.00 in0.0 mm
04:09 AM 30.4°F-0.9°C 20.0°F-6.7°C 65% 2.7 mph NE4.3 kmh NE 6.1 mph9.8 kmh 30.09 in1019.0 mb 0.00 in0.0 mm 0.00 in0.0 mm 0.00 in0.0 mm
04:08 AM 30.6°F-0.8°C 20.2°F-6.6°C 65% 2.8 mph NNE4.5 kmh NNE 6.1 mph9.8 kmh 30.09 in1019.0 mb 0.00 in0.0 mm 0.00 in0.0 mm 0.00 in0.0 mm
04:07 AM 30.6°F-0.8°C 20.2°F-6.6°C 65% 3.0 mph N4.8 kmh N 6.1 mph9.8 kmh 30.09 in1019.0 mb 0.00 in0.0 mm 0.00 in0.0 mm 0.00 in0.0 mm
04:06 AM 30.4°F-0.9°C 20.4°F-6.4°C 66% 2.9 mph N4.7 kmh N 6.1 mph9.8 kmh 30.10 in1019.3 mb 0.00 in0.0 mm 0.00 in0.0 mm 0.00 in0.0 mm
04:05 AM 30.4°F-0.9°C 20.4°F-6.4°C 66% 2.6 mph NW4.2 kmh NW 4.4 mph7.1 kmh 30.10 in1019.3 mb 0.00 in0.0 mm 0.00 in0.0 mm 0.00 in0.0 mm
04:04 AM 30.4°F-0.9°C 20.0°F-6.7°C 65% 2.4 mph W3.9 kmh W 3.5 mph5.6 kmh 30.10 in1019.3 mb 0.00 in0.0 mm 0.00 in0.0 mm 0.00 in0.0 mm
04:03 AM 30.6°F-0.8°C 20.5°F-6.4°C 66% 2.8 mph WSW4.5 kmh WSW 6.1 mph9.8 kmh 30.10 in1019.3 mb 0.00 in0.0 mm 0.00 in0.0 mm 0.00 in0.0 mm
04:02 AM 30.6°F-0.8°C 20.5°F-6.4°C 66% 2.7 mph WSW4.3 kmh WSW 6.1 mph9.8 kmh 30.10 in1019.3 mb 0.00 in0.0 mm 0.00 in0.0 mm 0.00 in0.0 mm
04:01 AM 30.7°F-0.7°C 20.4°F-6.4°C 65% 2.8 mph WSW4.5 kmh WSW 6.1 mph9.8 kmh 30.11 in1019.6 mb 0.00 in0.0 mm 0.00 in0.0 mm 0.00 in0.0 mm
04:00 AM 30.7°F-0.7°C 20.4°F-6.4°C 65% 3.1 mph SW5.0 kmh SW 6.1 mph9.8 kmh 30.10 in1019.3 mb 0.00 in0.0 mm 0.00 in0.0 mm 0.00 in0.0 mm
03:59 AM 30.7°F-0.7°C 20.4°F-6.4°C 65% 3.1 mph SW5.0 kmh SW 6.1 mph9.8 kmh 30.10 in1019.3 mb 0.00 in0.0 mm 0.00 in0.0 mm 0.00 in0.0 mm
03:58 AM 30.7°F-0.7°C 20.7°F-6.3°C 66% 2.8 mph SW4.5 kmh SW 6.1 mph9.8 kmh 30.10 in1019.3 mb 0.00 in0.0 mm 0.00 in0.0 mm 0.00 in0.0 mm
03:57 AM 30.6°F-0.8°C 20.5°F-6.4°C 66% 2.7 mph SW4.3 kmh SW 6.1 mph9.8 kmh 30.11 in1019.6 mb 0.00 in0.0 mm 0.00 in0.0 mm 0.00 in0.0 mm
03:56 AM 30.7°F-0.7°C 20.7°F-6.3°C 66% 3.0 mph WSW4.8 kmh WSW 6.1 mph9.8 kmh 30.11 in1019.6 mb 0.00 in0.0 mm 0.00 in0.0 mm 0.00 in0.0 mm
03:55 AM 30.7°F-0.7°C 20.7°F-6.3°C 66% 3.2 mph SW5.1 kmh SW 6.1 mph9.8 kmh 30.10 in1019.3 mb 0.00 in0.0 mm 0.00 in0.0 mm 0.00 in0.0 mm
03:54 AM 30.4°F-0.9°C 20.4°F-6.4°C 66% 3.2 mph SW5.1 kmh SW 6.1 mph9.8 kmh 30.11 in1019.6 mb 0.00 in0.0 mm 0.00 in0.0 mm 0.00 in0.0 mm
03:53 AM 30.4°F-0.9°C 20.0°F-6.7°C 65% 2.9 mph SW4.7 kmh SW 5.2 mph8.4 kmh 30.10 in1019.3 mb 0.00 in0.0 mm 0.00 in0.0 mm 0.00 in0.0 mm
03:52 AM 30.4°F-0.9°C 20.0°F-6.7°C 65% 2.7 mph SW4.3 kmh SW 5.2 mph8.4 kmh 30.10 in1019.3 mb 0.00 in0.0 mm 0.00 in0.0 mm 0.00 in0.0 mm
03:51 AM 30.6°F-0.8°C 20.2°F-6.6°C 65% 2.4 mph SSW3.9 kmh SSW 5.2 mph8.4 kmh 30.10 in1019.3 mb 0.00 in0.0 mm 0.00 in0.0 mm 0.00 in0.0 mm
03:50 AM 30.9°F-0.6°C 20.5°F-6.4°C 65% 2.4 mph SSW3.9 kmh SSW 7.0 mph11.3 kmh 30.11 in1019.6 mb 0.00 in0.0 mm 0.00 in0.0 mm 0.00 in0.0 mm
03:49 AM 30.9°F-0.6°C 20.5°F-6.4°C 65% 2.6 mph SSW4.2 kmh SSW 7.0 mph11.3 kmh 30.10 in1019.3 mb 0.00 in0.0 mm 0.00 in0.0 mm 0.00 in0.0 mm
03:48 AM 31.1°F-0.5°C 20.3°F-6.5°C 64% 3.0 mph ENE4.8 kmh ENE 7.0 mph11.3 kmh 30.10 in1019.3 mb 0.00 in0.0 mm 0.00 in0.0 mm 0.00 in0.0 mm
03:47 AM 30.9°F-0.6°C 20.2°F-6.6°C 64% 3.3 mph E5.3 kmh E 7.0 mph11.3 kmh 30.10 in1019.3 mb 0.00 in0.0 mm 0.00 in0.0 mm 0.00 in0.0 mm
03:46 AM 31.1°F-0.5°C 20.3°F-6.5°C 64% 3.1 mph E5.0 kmh E 7.0 mph11.3 kmh 30.10 in1019.3 mb 0.00 in0.0 mm 0.00 in0.0 mm 0.00 in0.0 mm
03:45 AM 30.9°F-0.6°C 20.2°F-6.6°C 64% 2.9 mph E4.7 kmh E 7.0 mph11.3 kmh 30.10 in1019.3 mb 0.00 in0.0 mm 0.00 in0.0 mm 0.00 in0.0 mm
03:44 AM 30.9°F-0.6°C 20.2°F-6.6°C 64% 2.8 mph ENE4.5 kmh ENE 7.0 mph11.3 kmh 30.10 in1019.3 mb 0.00 in0.0 mm 0.00 in0.0 mm 0.00 in0.0 mm
03:43 AM 31.1°F-0.5°C 20.3°F-6.5°C 64% 2.8 mph ENE4.5 kmh ENE 7.0 mph11.3 kmh 30.10 in1019.3 mb 0.00 in0.0 mm 0.00 in0.0 mm 0.00 in0.0 mm
03:42 AM 31.3°F-0.4°C 20.5°F-6.4°C 64% 3.0 mph NE4.8 kmh NE 7.0 mph11.3 kmh 30.10 in1019.3 mb 0.00 in0.0 mm 0.00 in0.0 mm 0.00 in0.0 mm
03:41 AM 31.3°F-0.4°C 20.5°F-6.4°C 64% 3.3 mph NE5.3 kmh NE 7.0 mph11.3 kmh 30.09 in1019.0 mb 0.00 in0.0 mm 0.00 in0.0 mm 0.00 in0.0 mm
03:40 AM 31.1°F-0.5°C 20.7°F-6.3°C 65% 3.4 mph NE5.5 kmh NE 7.0 mph11.3 kmh 30.10 in1019.3 mb 0.00 in0.0 mm 0.00 in0.0 mm 0.00 in0.0 mm
03:39 AM 31.1°F-0.5°C 20.7°F-6.3°C 65% 3.1 mph NE5.0 kmh NE 6.1 mph9.8 kmh 30.09 in1019.0 mb 0.00 in0.0 mm 0.00 in0.0 mm 0.00 in0.0 mm
03:38 AM 31.1°F-0.5°C 20.7°F-6.3°C 65% 2.8 mph E4.5 kmh E 5.2 mph8.4 kmh 30.09 in1019.0 mb 0.00 in0.0 mm 0.00 in0.0 mm 0.00 in0.0 mm
03:37 AM 30.9°F-0.6°C 20.5°F-6.4°C 65% 2.5 mph NNE4.0 kmh NNE 5.2 mph8.4 kmh 30.09 in1019.0 mb 0.00 in0.0 mm 0.00 in0.0 mm 0.00 in0.0 mm
03:36 AM 30.9°F-0.6°C 20.5°F-6.4°C 65% 2.6 mph NNE4.2 kmh NNE 5.2 mph8.4 kmh 30.10 in1019.3 mb 0.00 in0.0 mm 0.00 in0.0 mm 0.00 in0.0 mm
03:35 AM 31.1°F-0.5°C 20.7°F-6.3°C 65% 2.7 mph NNE4.3 kmh NNE 5.2 mph8.4 kmh 30.10 in1019.3 mb 0.00 in0.0 mm 0.00 in0.0 mm 0.00 in0.0 mm
03:34 AM 31.1°F-0.5°C 20.7°F-6.3°C 65% 2.7 mph NE4.3 kmh NE 5.2 mph8.4 kmh 30.10 in1019.3 mb 0.00 in0.0 mm 0.00 in0.0 mm 0.00 in0.0 mm
03:33 AM 31.1°F-0.5°C 20.7°F-6.3°C 65% 2.6 mph NE4.2 kmh NE 5.2 mph8.4 kmh 30.10 in1019.3 mb 0.00 in0.0 mm 0.00 in0.0 mm 0.00 in0.0 mm
03:32 AM 31.1°F-0.5°C 20.7°F-6.3°C 65% 2.7 mph ENE4.3 kmh ENE 5.2 mph8.4 kmh 30.09 in1019.0 mb 0.00 in0.0 mm 0.00 in0.0 mm 0.00 in0.0 mm
03:31 AM 30.9°F-0.6°C 20.5°F-6.4°C 65% 2.4 mph ESE3.9 kmh ESE 5.2 mph8.4 kmh 30.10 in1019.3 mb 0.00 in0.0 mm 0.00 in0.0 mm 0.00 in0.0 mm
03:30 AM 30.7°F-0.7°C 20.4°F-6.4°C 65% 2.1 mph SE3.4 kmh SE 3.5 mph5.6 kmh 30.10 in1019.3 mb 0.00 in0.0 mm 0.00 in0.0 mm 0.00 in0.0 mm
03:29 AM 30.7°F-0.7°C 20.4°F-6.4°C 65% 2.1 mph SE3.4 kmh SE 3.5 mph5.6 kmh 30.10 in1019.3 mb 0.00 in0.0 mm 0.00 in0.0 mm 0.00 in0.0 mm
03:28 AM 30.7°F-0.7°C 20.4°F-6.4°C 65% 2.3 mph ESE3.7 kmh ESE 4.4 mph7.1 kmh 30.10 in1019.3 mb 0.00 in0.0 mm 0.00 in0.0 mm 0.00 in0.0 mm
03:27 AM 30.9°F-0.6°C 20.5°F-6.4°C 65% 2.7 mph ESE4.3 kmh ESE 4.4 mph7.1 kmh 30.10 in1019.3 mb 0.00 in0.0 mm 0.00 in0.0 mm 0.00 in0.0 mm
03:26 AM 30.9°F-0.6°C 20.5°F-6.4°C 65% 2.7 mph SE4.3 kmh SE 4.4 mph7.1 kmh 30.11 in1019.6 mb 0.00 in0.0 mm 0.00 in0.0 mm 0.00 in0.0 mm
03:25 AM 30.9°F-0.6°C 20.5°F-6.4°C 65% 2.7 mph SE4.3 kmh SE 4.4 mph7.1 kmh 30.10 in1019.3 mb 0.00 in0.0 mm 0.00 in0.0 mm 0.00 in0.0 mm
03:24 AM 31.1°F-0.5°C 21.1°F-6.1°C 66% 3.0 mph SE4.8 kmh SE 5.2 mph8.4 kmh 30.11 in1019.6 mb 0.00 in0.0 mm 0.00 in0.0 mm 0.00 in0.0 mm
03:23 AM 31.1°F-0.5°C 21.1°F-6.1°C 66% 3.8 mph SSE6.1 kmh SSE 9.6 mph15.4 kmh 30.11 in1019.6 mb 0.00 in0.0 mm 0.00 in0.0 mm 0.00 in0.0 mm
03:22 AM 31.1°F-0.5°C 21.1°F-6.1°C 66% 3.9 mph SSE6.3 kmh SSE 9.6 mph15.4 kmh 30.11 in1019.6 mb 0.00 in0.0 mm 0.00 in0.0 mm 0.00 in0.0 mm
03:21 AM 31.1°F-0.5°C 21.1°F-6.1°C 66% 4.0 mph SSE6.4 kmh SSE 9.6 mph15.4 kmh 30.11 in1019.6 mb 0.00 in0.0 mm 0.00 in0.0 mm 0.00 in0.0 mm
03:20 AM 31.3°F-0.4°C 21.2°F-6.0°C 66% 4.0 mph S6.4 kmh S 9.6 mph15.4 kmh 30.11 in1019.6 mb 0.00 in0.0 mm 0.00 in0.0 mm 0.00 in0.0 mm
03:19 AM 31.1°F-0.5°C 21.1°F-6.1°C 66% 3.8 mph SSE6.1 kmh SSE 9.6 mph15.4 kmh 30.11 in1019.6 mb 0.00 in0.0 mm 0.00 in0.0 mm 0.00 in0.0 mm
03:18 AM 31.1°F-0.5°C 21.1°F-6.1°C 66% 3.3 mph S5.3 kmh S 9.6 mph15.4 kmh 30.10 in1019.3 mb 0.00 in0.0 mm 0.00 in0.0 mm 0.00 in0.0 mm
03:17 AM 31.3°F-0.4°C 21.2°F-6.0°C 66% 2.9 mph S4.7 kmh S 9.6 mph15.4 kmh 30.11 in1019.6 mb 0.00 in0.0 mm 0.00 in0.0 mm 0.00 in0.0 mm
03:16 AM 31.3°F-0.4°C 21.6°F-5.8°C 67% 2.5 mph S4.0 kmh S 9.6 mph15.4 kmh 30.11 in1019.6 mb 0.00 in0.0 mm 0.00 in0.0 mm 0.00 in0.0 mm
03:15 AM 31.3°F-0.4°C 21.6°F-5.8°C 67% 2.2 mph S3.5 kmh S 9.6 mph15.4 kmh 30.11 in1019.6 mb 0.00 in0.0 mm 0.00 in0.0 mm 0.00 in0.0 mm
03:14 AM 31.1°F-0.5°C 21.4°F-5.9°C 67% 1.7 mph SSW2.7 kmh SSW 9.6 mph15.4 kmh 30.11 in1019.6 mb 0.00 in0.0 mm 0.00 in0.0 mm 0.00 in0.0 mm
03:13 AM 30.9°F-0.6°C 21.6°F-5.8°C 68% 1.0 mph NW1.6 kmh NW 3.5 mph5.6 kmh 30.11 in1019.6 mb 0.00 in0.0 mm 0.00 in0.0 mm 0.00 in0.0 mm
03:12 AM 30.9°F-0.6°C 21.6°F-5.8°C 68% 0.7 mph WNW1.1 kmh WNW 3.5 mph5.6 kmh 30.10 in1019.3 mb 0.00 in0.0 mm 0.00 in0.0 mm 0.00 in0.0 mm
03:11 AM 30.9°F-0.6°C 21.6°F-5.8°C 68% 0.4 mph W0.6 kmh W 2.6 mph4.2 kmh 30.11 in1019.6 mb 0.00 in0.0 mm 0.00 in0.0 mm 0.00 in0.0 mm
03:10 AM 31.1°F-0.5°C 21.8°F-5.7°C 68% 0.1 mph E0.2 kmh E 1.7 mph2.7 kmh 30.11 in1019.6 mb 0.00 in0.0 mm 0.00 in0.0 mm 0.00 in0.0 mm
03:09 AM 31.3°F-0.4°C 21.9°F-5.6°C 68% Calm Calm 0.9 mph1.4 kmh 30.11 in1019.6 mb 0.00 in0.0 mm 0.00 in0.0 mm 0.00 in0.0 mm
03:08 AM 31.3°F-0.4°C 21.9°F-5.6°C 68% 0.2 mph SSW0.3 kmh SSW 1.7 mph2.7 kmh 30.11 in1019.6 mb 0.00 in0.0 mm 0.00 in0.0 mm 0.00 in0.0 mm
03:07 AM 31.3°F-0.4°C 21.9°F-5.6°C 68% 0.3 mph S0.5 kmh S 1.7 mph2.7 kmh 30.11 in1019.6 mb 0.00 in0.0 mm 0.00 in0.0 mm 0.00 in0.0 mm
03:06 AM 31.3°F-0.4°C 21.9°F-5.6°C 68% 0.6 mph S1.0 kmh S 1.7 mph2.7 kmh 30.12 in1020.0 mb 0.00 in0.0 mm 0.00 in0.0 mm 0.00 in0.0 mm
03:05 AM 31.3°F-0.4°C 21.9°F-5.6°C 68% 0.7 mph S1.1 kmh S 1.7 mph2.7 kmh 30.12 in1020.0 mb 0.00 in0.0 mm 0.00 in0.0 mm 0.00 in0.0 mm
03:04 AM 31.3°F-0.4°C 21.9°F-5.6°C 68% 1.3 mph SSE2.1 kmh SSE 7.0 mph11.3 kmh 30.12 in1020.0 mb 0.00 in0.0 mm 0.00 in0.0 mm 0.00 in0.0 mm
03:03 AM 31.3°F-0.4°C 21.9°F-5.6°C 68% 1.9 mph SSE3.1 kmh SSE 7.0 mph11.3 kmh 30.12 in1020.0 mb 0.00 in0.0 mm 0.00 in0.0 mm 0.00 in0.0 mm
03:02 AM 31.3°F-0.4°C 21.9°F-5.6°C 68% 2.1 mph SSE3.4 kmh SSE 7.0 mph11.3 kmh 30.12 in1020.0 mb 0.00 in0.0 mm 0.00 in0.0 mm 0.00 in0.0 mm
03:01 AM 31.3°F-0.4°C 21.9°F-5.6°C 68% 2.3 mph S3.7 kmh S 7.0 mph11.3 kmh 30.13 in1020.3 mb 0.00 in0.0 mm 0.00 in0.0 mm 0.00 in0.0 mm
03:00 AM 31.3°F-0.4°C 21.9°F-5.6°C 68% 2.7 mph S4.3 kmh S 7.0 mph11.3 kmh 30.13 in1020.3 mb 0.00 in0.0 mm 0.00 in0.0 mm 0.00 in0.0 mm
02:59 AM 31.3°F-0.4°C 21.6°F-5.8°C 67% 2.9 mph S4.7 kmh S 7.0 mph11.3 kmh 30.12 in1020.0 mb 0.00 in0.0 mm 0.00 in0.0 mm 0.00 in0.0 mm
02:58 AM 31.8°F-0.1°C 22.1°F-5.5°C 67% 3.0 mph S4.8 kmh S 7.0 mph11.3 kmh 30.12 in1020.0 mb 0.00 in0.0 mm 0.00 in0.0 mm 0.00 in0.0 mm
02:57 AM 31.8°F-0.1°C 22.1°F-5.5°C 67% 3.1 mph SSE5.0 kmh SSE 7.0 mph11.3 kmh 30.12 in1020.0 mb 0.00 in0.0 mm 0.00 in0.0 mm 0.00 in0.0 mm
02:56 AM 31.8°F-0.1°C 22.1°F-5.5°C 67% 3.2 mph SSE5.1 kmh SSE 7.0 mph11.3 kmh 30.12 in1020.0 mb 0.00 in0.0 mm 0.00 in0.0 mm 0.00 in0.0 mm
02:55 AM 31.8°F-0.1°C 22.1°F-5.5°C 67% 3.3 mph SSE5.3 kmh SSE 7.0 mph11.3 kmh 30.12 in1020.0 mb 0.00 in0.0 mm 0.00 in0.0 mm 0.00 in0.0 mm
02:54 AM 31.5°F-0.3°C 21.8°F-5.7°C 67% 3.3 mph S5.3 kmh S 7.0 mph11.3 kmh 30.12 in1020.0 mb 0.00 in0.0 mm 0.00 in0.0 mm 0.00 in0.0 mm
02:53 AM 31.5°F-0.3°C 21.8°F-5.7°C 67% 2.8 mph S4.5 kmh S 7.0 mph11.3 kmh 30.12 in1020.0 mb 0.00 in0.0 mm 0.00 in0.0 mm 0.00 in0.0 mm
02:52 AM 31.5°F-0.3°C 21.8°F-5.7°C 67% 2.8 mph S4.5 kmh S 7.0 mph11.3 kmh 30.12 in1020.0 mb 0.00 in0.0 mm 0.00 in0.0 mm 0.00 in0.0 mm
02:51 AM 31.5°F-0.3°C 21.8°F-5.7°C 67% 2.8 mph S4.5 kmh S 7.0 mph11.3 kmh 30.11 in1019.6 mb 0.00 in0.0 mm 0.00 in0.0 mm 0.00 in0.0 mm
02:50 AM 31.5°F-0.3°C 21.4°F-5.9°C 66% 2.6 mph S4.2 kmh S 7.0 mph11.3 kmh 30.12 in1020.0 mb 0.00 in0.0 mm 0.00 in0.0 mm 0.00 in0.0 mm
02:49 AM 31.5°F-0.3°C 21.4°F-5.9°C 66% 2.4 mph S3.9 kmh S 7.0 mph11.3 kmh 30.12 in1020.0 mb 0.00 in0.0 mm 0.00 in0.0 mm 0.00 in0.0 mm
02:48 AM 31.5°F-0.3°C 21.8°F-5.7°C 67% 2.4 mph S3.9 kmh S 7.0 mph11.3 kmh 30.12 in1020.0 mb 0.00 in0.0 mm 0.00 in0.0 mm 0.00 in0.0 mm
02:47 AM 31.5°F-0.3°C 21.8°F-5.7°C 67% 2.3 mph S3.7 kmh S 7.0 mph11.3 kmh 30.12 in1020.0 mb 0.00 in0.0 mm 0.00 in0.0 mm 0.00 in0.0 mm
02:46 AM 31.6°F-0.2°C 21.9°F-5.6°C 67% 2.3 mph S3.7 kmh S 7.0 mph11.3 kmh 30.11 in1019.6 mb 0.00 in0.0 mm 0.00 in0.0 mm 0.00 in0.0 mm
02:45 AM 31.3°F-0.4°C 21.6°F-5.8°C 67% 2.0 mph S3.2 kmh S 7.0 mph11.3 kmh 30.12 in1020.0 mb 0.00 in0.0 mm 0.00 in0.0 mm 0.00 in0.0 mm
02:44 AM 31.3°F-0.4°C 21.6°F-5.8°C 67% 1.7 mph SSW2.7 kmh SSW 3.5 mph5.6 kmh 30.12 in1020.0 mb 0.00 in0.0 mm 0.00 in0.0 mm 0.00 in0.0 mm
02:43 AM 31.5°F-0.3°C 21.8°F-5.7°C 67% 1.7 mph WSW2.7 kmh WSW 3.5 mph5.6 kmh 30.11 in1019.6 mb 0.00 in0.0 mm 0.00 in0.0 mm 0.00 in0.0 mm
02:42 AM 31.3°F-0.4°C 21.2°F-6.0°C 66% 1.7 mph NE2.7 kmh NE 3.5 mph5.6 kmh 30.11 in1019.6 mb 0.00 in0.0 mm 0.00 in0.0 mm 0.00 in0.0 mm
02:41 AM 31.5°F-0.3°C 21.4°F-5.9°C 66% 1.8 mph N2.9 kmh N 4.4 mph7.1 kmh 30.11 in1019.6 mb 0.00 in0.0 mm 0.00 in0.0 mm 0.00 in0.0 mm
02:40 AM 31.5°F-0.3°C 21.4°F-5.9°C 66% 2.0 mph N3.2 kmh N 4.4 mph7.1 kmh 30.11 in1019.6 mb 0.00 in0.0 mm 0.00 in0.0 mm 0.00 in0.0 mm
02:39 AM 31.5°F-0.3°C 21.4°F-5.9°C 66% 2.3 mph N3.7 kmh N 4.4 mph7.1 kmh 30.11 in1019.6 mb 0.00 in0.0 mm 0.00 in0.0 mm 0.00 in0.0 mm
02:38 AM 31.6°F-0.2°C 21.6°F-5.8°C 66% 2.5 mph N4.0 kmh N 5.2 mph8.4 kmh 30.11 in1019.6 mb 0.00 in0.0 mm 0.00 in0.0 mm 0.00 in0.0 mm
02:37 AM 31.6°F-0.2°C 21.6°F-5.8°C 66% 2.6 mph N4.2 kmh N 5.2 mph8.4 kmh 30.11 in1019.6 mb 0.00 in0.0 mm 0.00 in0.0 mm 0.00 in0.0 mm
02:36 AM 31.6°F-0.2°C 21.6°F-5.8°C 66% 2.4 mph NNE3.9 kmh NNE 5.2 mph8.4 kmh 30.11 in1019.6 mb 0.00 in0.0 mm 0.00 in0.0 mm 0.00 in0.0 mm
02:35 AM 31.8°F-0.1°C 21.7°F-5.7°C 66% 2.7 mph NNE4.3 kmh NNE 5.2 mph8.4 kmh 30.11 in1019.6 mb 0.00 in0.0 mm 0.00 in0.0 mm 0.00 in0.0 mm
02:34 AM 32.0°F0.0°C 21.2°F-6.0°C 64% 2.9 mph NNE4.7 kmh NNE 5.2 mph8.4 kmh 30.11 in1019.6 mb 0.00 in0.0 mm 0.00 in0.0 mm 0.00 in0.0 mm
02:33 AM 32.0°F0.0°C 21.2°F-6.0°C 64% 2.9 mph NE4.7 kmh NE 5.2 mph8.4 kmh 30.11 in1019.6 mb 0.00 in0.0 mm 0.00 in0.0 mm 0.00 in0.0 mm
02:32 AM 32.0°F0.0°C 21.2°F-6.0°C 64% 3.0 mph NE4.8 kmh NE 5.2 mph8.4 kmh 30.11 in1019.6 mb 0.00 in0.0 mm 0.00 in0.0 mm 0.00 in0.0 mm
02:31 AM 32.0°F0.0°C 21.2°F-6.0°C 64% 3.1 mph E5.0 kmh E 6.1 mph9.8 kmh 30.10 in1019.3 mb 0.00 in0.0 mm 0.00 in0.0 mm 0.00 in0.0 mm
02:30 AM 32.0°F0.0°C 21.2°F-6.0°C 64% 2.9 mph SE4.7 kmh SE 6.1 mph9.8 kmh 30.11 in1019.6 mb 0.00 in0.0 mm 0.00 in0.0 mm 0.00 in0.0 mm
02:29 AM 32.0°F0.0°C 21.2°F-6.0°C 64% 2.9 mph SE4.7 kmh SE 6.1 mph9.8 kmh 30.11 in1019.6 mb 0.00 in0.0 mm 0.00 in0.0 mm 0.00 in0.0 mm
02:28 AM 31.8°F-0.1°C 21.4°F-5.9°C 65% 2.7 mph SSE4.3 kmh SSE 6.1 mph9.8 kmh 30.11 in1019.6 mb 0.00 in0.0 mm 0.00 in0.0 mm 0.00 in0.0 mm
02:27 AM 32.0°F0.0°C 21.2°F-6.0°C 64% 2.5 mph S4.0 kmh S 6.1 mph9.8 kmh 30.11 in1019.6 mb 0.00 in0.0 mm 0.00 in0.0 mm 0.00 in0.0 mm
02:26 AM 32.0°F0.0°C 21.6°F-5.8°C 65% 2.5 mph S4.0 kmh S 6.1 mph9.8 kmh 30.11 in1019.6 mb 0.00 in0.0 mm 0.00 in0.0 mm 0.00 in0.0 mm
02:25 AM 31.8°F-0.1°C 21.7°F-5.7°C 66% 2.5 mph S4.0 kmh S 6.1 mph9.8 kmh 30.11 in1019.6 mb 0.00 in0.0 mm 0.00 in0.0 mm 0.00 in0.0 mm
02:24 AM 31.8°F-0.1°C 22.1°F-5.5°C 67% 2.1 mph SSW3.4 kmh SSW 6.1 mph9.8 kmh 30.11 in1019.6 mb 0.00 in0.0 mm 0.00 in0.0 mm 0.00 in0.0 mm
02:23 AM 31.6°F-0.2°C 21.9°F-5.6°C 67% 1.9 mph SSW3.1 kmh SSW 6.1 mph9.8 kmh 30.10 in1019.3 mb 0.00 in0.0 mm 0.00 in0.0 mm 0.00 in0.0 mm
02:22 AM 31.6°F-0.2°C 21.9°F-5.6°C 67% 1.7 mph SSW2.7 kmh SSW 6.1 mph9.8 kmh 30.11 in1019.6 mb 0.00 in0.0 mm 0.00 in0.0 mm 0.00 in0.0 mm
02:21 AM 31.6°F-0.2°C 21.9°F-5.6°C 67% 1.3 mph SW2.1 kmh SW 4.4 mph7.1 kmh 30.10 in1019.3 mb 0.00 in0.0 mm 0.00 in0.0 mm 0.00 in0.0 mm
02:20 AM 31.8°F-0.1°C 22.1°F-5.5°C 67% 1.2 mph WSW1.9 kmh WSW 2.6 mph4.2 kmh 30.11 in1019.6 mb 0.00 in0.0 mm 0.00 in0.0 mm 0.00 in0.0 mm
02:19 AM 31.8°F-0.1°C 22.1°F-5.5°C 67% 1.3 mph WSW2.1 kmh WSW 2.6 mph4.2 kmh 30.11 in1019.6 mb 0.00 in0.0 mm 0.00 in0.0 mm 0.00 in0.0 mm
02:18 AM 31.8°F-0.1°C 22.1°F-5.5°C 67% 1.2 mph WSW1.9 kmh WSW 2.6 mph4.2 kmh 30.10 in1019.3 mb 0.00 in0.0 mm 0.00 in0.0 mm 0.00 in0.0 mm
02:17 AM 31.8°F-0.1°C 22.5°F-5.3°C 68% 1.2 mph WSW1.9 kmh WSW 2.6 mph4.2 kmh 30.11 in1019.6 mb 0.00 in0.0 mm 0.00 in0.0 mm 0.00 in0.0 mm
02:16 AM 31.8°F-0.1°C 22.1°F-5.5°C 67% 1.1 mph SW1.8 kmh SW 2.6 mph4.2 kmh 30.10 in1019.3 mb 0.00 in0.0 mm 0.00 in0.0 mm 0.00 in0.0 mm
02:15 AM 32.0°F0.0°C 21.9°F-5.6°C 66% 1.0 mph SW1.6 kmh SW 2.6 mph4.2 kmh 30.10 in1019.3 mb 0.00 in0.0 mm 0.00 in0.0 mm 0.00 in0.0 mm
02:14 AM 32.0°F0.0°C 21.6°F-5.8°C 65% 1.1 mph SW1.8 kmh SW 2.6 mph4.2 kmh 30.10 in1019.3 mb 0.00 in0.0 mm 0.00 in0.0 mm 0.00 in0.0 mm
02:13 AM 32.0°F0.0°C 21.6°F-5.8°C 65% 1.3 mph SW2.1 kmh SW 2.6 mph4.2 kmh 30.10 in1019.3 mb 0.00 in0.0 mm 0.00 in0.0 mm 0.00 in0.0 mm
02:12 AM 32.0°F0.0°C 21.2°F-6.0°C 64% 1.3 mph SW2.1 kmh SW 2.6 mph4.2 kmh 30.10 in1019.3 mb 0.00 in0.0 mm 0.00 in0.0 mm 0.00 in0.0 mm
02:11 AM 32.2°F0.1°C 21.4°F-5.9°C 64% 1.3 mph SW2.1 kmh SW 2.6 mph4.2 kmh 30.10 in1019.3 mb 0.00 in0.0 mm 0.00 in0.0 mm 0.00 in0.0 mm
02:10 AM 32.4°F0.2°C 21.2°F-6.0°C 63% 1.3 mph WSW2.1 kmh WSW 3.5 mph5.6 kmh 30.10 in1019.3 mb 0.00 in0.0 mm 0.00 in0.0 mm 0.00 in0.0 mm
02:09 AM 32.4°F0.2°C 21.2°F-6.0°C 63% 1.3 mph WNW2.1 kmh WNW 3.5 mph5.6 kmh 30.10 in1019.3 mb 0.00 in0.0 mm 0.00 in0.0 mm 0.00 in0.0 mm
02:08 AM 32.4°F0.2°C 21.2°F-6.0°C 63% 1.5 mph NW2.4 kmh NW 3.5 mph5.6 kmh 30.10 in1019.3 mb 0.00 in0.0 mm 0.00 in0.0 mm 0.00 in0.0 mm
02:07 AM 32.4°F0.2°C 21.2°F-6.0°C 63% 1.6 mph NNW2.6 kmh NNW 3.5 mph5.6 kmh 30.10 in1019.3 mb 0.00 in0.0 mm 0.00 in0.0 mm 0.00 in0.0 mm
02:06 AM 32.4°F0.2°C 21.2°F-6.0°C 63% 1.8 mph N2.9 kmh N 3.5 mph5.6 kmh 30.10 in1019.3 mb 0.00 in0.0 mm 0.00 in0.0 mm 0.00 in0.0 mm
02:05 AM 32.5°F0.3°C 21.3°F-5.9°C 63% 1.9 mph N3.1 kmh N 3.5 mph5.6 kmh 30.10 in1019.3 mb 0.00 in0.0 mm 0.00 in0.0 mm 0.00 in0.0 mm
02:04 AM 32.5°F0.3°C 21.3°F-5.9°C 63% 2.1 mph N3.4 kmh N 3.5 mph5.6 kmh 30.10 in1019.3 mb 0.00 in0.0 mm 0.00 in0.0 mm 0.00 in0.0 mm
02:03 AM 32.5°F0.3°C 21.0°F-6.1°C 62% 2.3 mph N3.7 kmh N 6.1 mph9.8 kmh 30.11 in1019.6 mb 0.00 in0.0 mm 0.00 in0.0 mm 0.00 in0.0 mm
02:02 AM 32.7°F0.4°C 21.1°F-6.1°C 62% 2.8 mph N4.5 kmh N 6.1 mph9.8 kmh 30.10 in1019.3 mb 0.00 in0.0 mm 0.00 in0.0 mm 0.00 in0.0 mm
02:01 AM 32.7°F0.4°C 21.1°F-6.1°C 62% 3.0 mph N4.8 kmh N 6.1 mph9.8 kmh 30.10 in1019.3 mb 0.00 in0.0 mm 0.00 in0.0 mm 0.00 in0.0 mm
02:00 AM 32.7°F0.4°C 21.1°F-6.1°C 62% 3.1 mph N5.0 kmh N 6.1 mph9.8 kmh 30.10 in1019.3 mb 0.00 in0.0 mm 0.00 in0.0 mm 0.00 in0.0 mm
01:59 AM 32.7°F0.4°C 21.1°F-6.1°C 62% 3.7 mph N6.0 kmh N 8.7 mph14.0 kmh 30.10 in1019.3 mb 0.00 in0.0 mm 0.00 in0.0 mm 0.00 in0.0 mm
01:58 AM 32.7°F0.4°C 21.1°F-6.1°C 62% 3.7 mph N6.0 kmh N 8.7 mph14.0 kmh 30.10 in1019.3 mb 0.00 in0.0 mm 0.00 in0.0 mm 0.00 in0.0 mm
01:57 AM 32.7°F0.4°C 21.1°F-6.1°C 62% 3.8 mph N6.1 kmh N 8.7 mph14.0 kmh 30.10 in1019.3 mb 0.00 in0.0 mm 0.00 in0.0 mm 0.00 in0.0 mm
01:56 AM 32.9°F0.5°C 21.3°F-5.9°C 62% 3.8 mph N6.1 kmh N 8.7 mph14.0 kmh 30.10 in1019.3 mb 0.00 in0.0 mm 0.00 in0.0 mm 0.00 in0.0 mm
01:55 AM 32.7°F0.4°C 21.1°F-6.1°C 62% 3.6 mph N5.8 kmh N 8.7 mph14.0 kmh 30.10 in1019.3 mb 0.00 in0.0 mm 0.00 in0.0 mm 0.00 in0.0 mm
01:54 AM 32.7°F0.4°C 21.1°F-6.1°C 62% 3.6 mph N5.8 kmh N 8.7 mph14.0 kmh 30.10 in1019.3 mb 0.00 in0.0 mm 0.00 in0.0 mm 0.00 in0.0 mm
01:53 AM 32.7°F0.4°C 21.5°F-5.8°C 63% 3.4 mph N5.5 kmh N 8.7 mph14.0 kmh 30.10 in1019.3 mb 0.00 in0.0 mm 0.00 in0.0 mm 0.00 in0.0 mm
01:52 AM 32.7°F0.4°C 21.1°F-6.1°C 62% 3.1 mph NNE5.0 kmh NNE 8.7 mph14.0 kmh 30.11 in1019.6 mb 0.00 in0.0 mm 0.00 in0.0 mm 0.00 in0.0 mm
01:51 AM 32.7°F0.4°C 21.1°F-6.1°C 62% 3.2 mph SE5.1 kmh SE 8.7 mph14.0 kmh 30.10 in1019.3 mb 0.00 in0.0 mm 0.00 in0.0 mm 0.00 in0.0 mm
01:50 AM 32.7°F0.4°C 21.1°F-6.1°C 62% 3.2 mph SSE5.1 kmh SSE 8.7 mph14.0 kmh 30.10 in1019.3 mb 0.00 in0.0 mm 0.00 in0.0 mm 0.00 in0.0 mm
01:49 AM 32.7°F0.4°C 21.1°F-6.1°C 62% 2.8 mph ESE4.5 kmh ESE 4.4 mph7.1 kmh 30.10 in1019.3 mb 0.00 in0.0 mm 0.00 in0.0 mm 0.00 in0.0 mm
01:48 AM 32.7°F0.4°C 21.1°F-6.1°C 62% 3.0 mph ESE4.8 kmh ESE 4.4 mph7.1 kmh 30.10 in1019.3 mb 0.00 in0.0 mm 0.00 in0.0 mm 0.00 in0.0 mm
01:47 AM 32.7°F0.4°C 21.1°F-6.1°C 62% 3.0 mph ESE4.8 kmh ESE 4.4 mph7.1 kmh 30.10 in1019.3 mb 0.00 in0.0 mm 0.00 in0.0 mm 0.00 in0.0 mm
01:46 AM 32.7°F0.4°C 21.1°F-6.1°C 62% 3.2 mph ESE5.1 kmh ESE 7.0 mph11.3 kmh 30.10 in1019.3 mb 0.00 in0.0 mm 0.00 in0.0 mm 0.00 in0.0 mm
01:45 AM 32.9°F0.5°C 20.9°F-6.2°C 61% 3.9 mph ESE6.3 kmh ESE 7.0 mph11.3 kmh 30.10 in1019.3 mb 0.00 in0.0 mm 0.00 in0.0 mm 0.00 in0.0 mm
01:44 AM 32.9°F0.5°C 20.9°F-6.2°C 61% 4.1 mph E6.6 kmh E 7.0 mph11.3 kmh 30.10 in1019.3 mb 0.00 in0.0 mm 0.00 in0.0 mm 0.00 in0.0 mm
01:43 AM 33.1°F0.6°C 21.1°F-6.1°C 61% 4.2 mph E6.8 kmh E 7.0 mph11.3 kmh 30.10 in1019.3 mb 0.00 in0.0 mm 0.00 in0.0 mm 0.00 in0.0 mm
01:42 AM 33.1°F0.6°C 21.1°F-6.1°C 61% 4.6 mph ENE7.4 kmh ENE 7.9 mph12.7 kmh 30.10 in1019.3 mb 0.00 in0.0 mm 0.00 in0.0 mm 0.00 in0.0 mm
01:41 AM 33.1°F0.6°C 21.1°F-6.1°C 61% 4.6 mph NE7.4 kmh NE 7.9 mph12.7 kmh 30.10 in1019.3 mb 0.00 in0.0 mm 0.00 in0.0 mm 0.00 in0.0 mm
01:40 AM 33.1°F0.6°C 21.1°F-6.1°C 61% 4.7 mph NE7.6 kmh NE 7.9 mph12.7 kmh 30.10 in1019.3 mb 0.00 in0.0 mm 0.00 in0.0 mm 0.00 in0.0 mm
01:39 AM 33.1°F0.6°C 21.1°F-6.1°C 61% 4.6 mph NE7.4 kmh NE 7.9 mph12.7 kmh 30.10 in1019.3 mb 0.00 in0.0 mm 0.00 in0.0 mm 0.00 in0.0 mm
01:38 AM 33.1°F0.6°C 21.1°F-6.1°C 61% 4.4 mph NE7.1 kmh NE 7.9 mph12.7 kmh 30.10 in1019.3 mb 0.00 in0.0 mm 0.00 in0.0 mm 0.00 in0.0 mm
01:37 AM 33.1°F0.6°C 21.1°F-6.1°C 61% 4.4 mph NNE7.1 kmh NNE 7.9 mph12.7 kmh 30.10 in1019.3 mb 0.00 in0.0 mm 0.00 in0.0 mm 0.00 in0.0 mm
01:36 AM 33.1°F0.6°C 21.1°F-6.1°C 61% 4.2 mph NNE6.8 kmh NNE 7.9 mph12.7 kmh 30.11 in1019.6 mb 0.00 in0.0 mm 0.00 in0.0 mm 0.00 in0.0 mm
01:35 AM 33.1°F0.6°C 21.1°F-6.1°C 61% 3.8 mph N6.1 kmh N 7.9 mph12.7 kmh 30.10 in1019.3 mb 0.00 in0.0 mm 0.00 in0.0 mm 0.00 in0.0 mm
01:34 AM 33.1°F0.6°C 21.5°F-5.8°C 62% 3.8 mph N6.1 kmh N 7.9 mph12.7 kmh 30.10 in1019.3 mb 0.00 in0.0 mm 0.00 in0.0 mm 0.00 in0.0 mm
01:33 AM 33.1°F0.6°C 21.5°F-5.8°C 62% 3.7 mph N6.0 kmh N 7.9 mph12.7 kmh 30.10 in1019.3 mb 0.00 in0.0 mm 0.00 in0.0 mm 0.00 in0.0 mm
01:32 AM 33.1°F0.6°C 21.5°F-5.8°C 62% 3.4 mph N5.5 kmh N 5.2 mph8.4 kmh 30.10 in1019.3 mb 0.00 in0.0 mm 0.00 in0.0 mm 0.00 in0.0 mm
01:31 AM 33.1°F0.6°C 21.5°F-5.8°C 62% 3.5 mph NE5.6 kmh NE 5.2 mph8.4 kmh 30.10 in1019.3 mb 0.00 in0.0 mm 0.00 in0.0 mm 0.00 in0.0 mm
01:30 AM 33.1°F0.6°C 21.5°F-5.8°C 62% 3.5 mph NE5.6 kmh NE 5.2 mph8.4 kmh 30.10 in1019.3 mb 0.00 in0.0 mm 0.00 in0.0 mm 0.00 in0.0 mm
01:29 AM 33.1°F0.6°C 21.5°F-5.8°C 62% 3.5 mph NE5.6 kmh NE 5.2 mph8.4 kmh 30.10 in1019.3 mb 0.00 in0.0 mm 0.00 in0.0 mm 0.00 in0.0 mm
01:28 AM 33.1°F0.6°C 21.5°F-5.8°C 62% 3.9 mph ESE6.3 kmh ESE 5.2 mph8.4 kmh 30.10 in1019.3 mb 0.00 in0.0 mm 0.00 in0.0 mm 0.00 in0.0 mm
01:27 AM 33.1°F0.6°C 21.5°F-5.8°C 62% 3.8 mph SSE6.1 kmh SSE 5.2 mph8.4 kmh 30.10 in1019.3 mb 0.00 in0.0 mm 0.00 in0.0 mm 0.00 in0.0 mm
01:26 AM 33.1°F0.6°C 21.5°F-5.8°C 62% 4.5 mph SSE7.2 kmh SSE 9.6 mph15.4 kmh 30.10 in1019.3 mb 0.00 in0.0 mm 0.00 in0.0 mm 0.00 in0.0 mm
01:25 AM 33.1°F0.6°C 21.8°F-5.7°C 63% 4.9 mph S7.9 kmh S 9.6 mph15.4 kmh 30.11 in1019.6 mb 0.00 in0.0 mm 0.00 in0.0 mm 0.00 in0.0 mm
01:24 AM 33.1°F0.6°C 21.8°F-5.7°C 63% 4.6 mph S7.4 kmh S 9.6 mph15.4 kmh 30.10 in1019.3 mb 0.00 in0.0 mm 0.00 in0.0 mm 0.00 in0.0 mm
01:23 AM 33.1°F0.6°C 21.8°F-5.7°C 63% 4.8 mph S7.7 kmh S 9.6 mph15.4 kmh 30.10 in1019.3 mb 0.00 in0.0 mm 0.00 in0.0 mm 0.00 in0.0 mm
01:22 AM 32.9°F0.5°C 21.7°F-5.7°C 63% 4.9 mph S7.9 kmh S 9.6 mph15.4 kmh 30.10 in1019.3 mb 0.00 in0.0 mm 0.00 in0.0 mm 0.00 in0.0 mm
01:21 AM 33.1°F0.6°C 21.8°F-5.7°C 63% 4.7 mph S7.6 kmh S 9.6 mph15.4 kmh 30.10 in1019.3 mb 0.00 in0.0 mm 0.00 in0.0 mm 0.00 in0.0 mm
01:20 AM 33.1°F0.6°C 21.5°F-5.8°C 62% 4.5 mph S7.2 kmh S 9.6 mph15.4 kmh 30.10 in1019.3 mb 0.00 in0.0 mm 0.00 in0.0 mm 0.00 in0.0 mm
01:19 AM 33.1°F0.6°C 21.5°F-5.8°C 62% 4.7 mph S7.6 kmh S 9.6 mph15.4 kmh 30.10 in1019.3 mb 0.00 in0.0 mm 0.00 in0.0 mm 0.00 in0.0 mm
01:18 AM 33.1°F0.6°C 21.5°F-5.8°C 62% 4.5 mph SE7.2 kmh SE 9.6 mph15.4 kmh 30.11 in1019.6 mb 0.00 in0.0 mm 0.00 in0.0 mm 0.00 in0.0 mm
01:17 AM 32.9°F0.5°C 21.3°F-5.9°C 62% 4.3 mph SE6.9 kmh SE 9.6 mph15.4 kmh 30.10 in1019.3 mb 0.00 in0.0 mm 0.00 in0.0 mm 0.00 in0.0 mm
01:16 AM 33.1°F0.6°C 21.5°F-5.8°C 62% 3.4 mph NNE5.5 kmh NNE 9.6 mph15.4 kmh 30.10 in1019.3 mb 0.00 in0.0 mm 0.00 in0.0 mm 0.00 in0.0 mm
01:15 AM 33.1°F0.6°C 21.5°F-5.8°C 62% 2.8 mph N4.5 kmh N 5.2 mph8.4 kmh 30.10 in1019.3 mb 0.00 in0.0 mm 0.00 in0.0 mm 0.00 in0.0 mm
01:14 AM 33.1°F0.6°C 21.1°F-6.1°C 61% 2.6 mph N4.2 kmh N 5.2 mph8.4 kmh 30.10 in1019.3 mb 0.00 in0.0 mm 0.00 in0.0 mm 0.00 in0.0 mm
01:13 AM 33.1°F0.6°C 21.1°F-6.1°C 61% 2.1 mph NNE3.4 kmh NNE 5.2 mph8.4 kmh 30.11 in1019.6 mb 0.00 in0.0 mm 0.00 in0.0 mm 0.00 in0.0 mm
01:12 AM 33.1°F0.6°C 21.1°F-6.1°C 61% 1.6 mph NE2.6 kmh NE 5.2 mph8.4 kmh 30.10 in1019.3 mb 0.00 in0.0 mm 0.00 in0.0 mm 0.00 in0.0 mm
01:11 AM 33.3°F0.7°C 21.3°F-5.9°C 61% 1.3 mph N2.1 kmh N 5.2 mph8.4 kmh 30.11 in1019.6 mb 0.00 in0.0 mm 0.00 in0.0 mm 0.00 in0.0 mm
01:10 AM 33.3°F0.7°C 21.3°F-5.9°C 61% 1.0 mph NNE1.6 kmh NNE 5.2 mph8.4 kmh 30.11 in1019.6 mb 0.00 in0.0 mm 0.00 in0.0 mm 0.00 in0.0 mm
01:09 AM 33.1°F0.6°C 21.5°F-5.8°C 62% 0.8 mph NNE1.3 kmh NNE 4.4 mph7.1 kmh 30.11 in1019.6 mb 0.00 in0.0 mm 0.00 in0.0 mm 0.00 in0.0 mm
01:08 AM 33.1°F0.6°C 21.5°F-5.8°C 62% 0.8 mph N1.3 kmh N 4.4 mph7.1 kmh 30.11 in1019.6 mb 0.00 in0.0 mm 0.00 in0.0 mm 0.00 in0.0 mm
01:07 AM 33.1°F0.6°C 21.5°F-5.8°C 62% 0.9 mph N1.4 kmh N 4.4 mph7.1 kmh 30.11 in1019.6 mb 0.00 in0.0 mm 0.00 in0.0 mm 0.00 in0.0 mm
01:06 AM 33.1°F0.6°C 21.5°F-5.8°C 62% 1.6 mph N2.6 kmh N 7.9 mph12.7 kmh 30.11 in1019.6 mb 0.00 in0.0 mm 0.00 in0.0 mm 0.00 in0.0 mm
01:05 AM 33.1°F0.6°C 21.5°F-5.8°C 62% 1.9 mph N3.1 kmh N 7.9 mph12.7 kmh 30.11 in1019.6 mb 0.00 in0.0 mm 0.00 in0.0 mm 0.00 in0.0 mm
01:04 AM 33.1°F0.6°C 21.5°F-5.8°C 62% 2.1 mph N3.4 kmh N 7.9 mph12.7 kmh 30.11 in1019.6 mb 0.00 in0.0 mm 0.00 in0.0 mm 0.00 in0.0 mm
01:03 AM 33.1°F0.6°C 21.5°F-5.8°C 62% 2.1 mph N3.4 kmh N 7.9 mph12.7 kmh 30.11 in1019.6 mb 0.00 in0.0 mm 0.00 in0.0 mm 0.00 in0.0 mm
01:02 AM 33.1°F0.6°C 21.5°F-5.8°C 62% 2.3 mph N3.7 kmh N 7.9 mph12.7 kmh 30.12 in1020.0 mb 0.00 in0.0 mm 0.00 in0.0 mm 0.00 in0.0 mm
01:01 AM 33.1°F0.6°C 21.5°F-5.8°C 62% 2.9 mph N4.7 kmh N 7.9 mph12.7 kmh 30.11 in1019.6 mb 0.00 in0.0 mm 0.00 in0.0 mm 0.00 in0.0 mm
01:00 AM 33.1°F0.6°C 21.5°F-5.8°C 62% 3.6 mph NNE5.8 kmh NNE 7.9 mph12.7 kmh 30.12 in1020.0 mb 0.00 in0.0 mm 0.00 in0.0 mm 0.00 in0.0 mm
12:59 AM 33.1°F0.6°C 21.5°F-5.8°C 62% 3.9 mph NE6.3 kmh NE 7.9 mph12.7 kmh 30.11 in1019.6 mb 0.00 in0.0 mm 0.00 in0.0 mm 0.00 in0.0 mm
12:58 AM 33.1°F0.6°C 21.1°F-6.1°C 61% 4.0 mph NE6.4 kmh NE 7.9 mph12.7 kmh 30.12 in1020.0 mb 0.00 in0.0 mm 0.00 in0.0 mm 0.00 in0.0 mm
12:57 AM 33.1°F0.6°C 21.1°F-6.1°C 61% 3.9 mph NE6.3 kmh NE 7.9 mph12.7 kmh 30.11 in1019.6 mb 0.00 in0.0 mm 0.00 in0.0 mm 0.00 in0.0 mm
12:56 AM 33.1°F0.6°C 21.1°F-6.1°C 61% 3.6 mph ENE5.8 kmh ENE 7.9 mph12.7 kmh 30.11 in1019.6 mb 0.00 in0.0 mm 0.00 in0.0 mm 0.00 in0.0 mm
12:55 AM 33.1°F0.6°C 21.1°F-6.1°C 61% 3.8 mph ENE6.1 kmh ENE 7.9 mph12.7 kmh 30.11 in1019.6 mb 0.00 in0.0 mm 0.00 in0.0 mm 0.00 in0.0 mm
12:54 AM 33.4°F0.8°C 21.4°F-5.9°C 61% 3.9 mph ENE6.3 kmh ENE 7.9 mph12.7 kmh 30.11 in1019.6 mb 0.00 in0.0 mm 0.00 in0.0 mm 0.00 in0.0 mm
12:53 AM 33.4°F0.8°C 21.4°F-5.9°C 61% 4.1 mph ENE6.6 kmh ENE 7.9 mph12.7 kmh 30.11 in1019.6 mb 0.00 in0.0 mm 0.00 in0.0 mm 0.00 in0.0 mm
12:52 AM 33.6°F0.9°C 21.6°F-5.8°C 61% 4.1 mph ENE6.6 kmh ENE 7.9 mph12.7 kmh 30.11 in1019.6 mb 0.00 in0.0 mm 0.00 in0.0 mm 0.00 in0.0 mm
12:51 AM 33.4°F0.8°C 21.4°F-5.9°C 61% 3.8 mph ENE6.1 kmh ENE 7.9 mph12.7 kmh 30.11 in1019.6 mb 0.00 in0.0 mm 0.00 in0.0 mm 0.00 in0.0 mm
12:50 AM 33.1°F0.6°C 21.5°F-5.8°C 62% 3.4 mph NE5.5 kmh NE 6.1 mph9.8 kmh 30.11 in1019.6 mb 0.00 in0.0 mm 0.00 in0.0 mm 0.00 in0.0 mm
12:49 AM 33.1°F0.6°C 21.5°F-5.8°C 62% 3.1 mph NE5.0 kmh NE 5.2 mph8.4 kmh 30.11 in1019.6 mb 0.00 in0.0 mm 0.00 in0.0 mm 0.00 in0.0 mm
12:48 AM 33.1°F0.6°C 21.5°F-5.8°C 62% 3.2 mph NE5.1 kmh NE 5.2 mph8.4 kmh 30.11 in1019.6 mb 0.00 in0.0 mm 0.00 in0.0 mm 0.00 in0.0 mm
12:47 AM 33.1°F0.6°C 21.5°F-5.8°C 62% 3.3 mph NE5.3 kmh NE 5.2 mph8.4 kmh 30.11 in1019.6 mb 0.00 in0.0 mm 0.00 in0.0 mm 0.00 in0.0 mm
12:46 AM 33.3°F0.7°C 21.6°F-5.8°C 62% 3.2 mph N5.1 kmh N 5.2 mph8.4 kmh 30.11 in1019.6 mb 0.00 in0.0 mm 0.00 in0.0 mm 0.00 in0.0 mm
12:45 AM 33.1°F0.6°C 21.8°F-5.7°C 63% 2.8 mph N4.5 kmh N 5.2 mph8.4 kmh 30.10 in1019.3 mb 0.00 in0.0 mm 0.00 in0.0 mm 0.00 in0.0 mm
12:44 AM 33.1°F0.6°C 21.8°F-5.7°C 63% 2.7 mph N4.3 kmh N 5.2 mph8.4 kmh 30.11 in1019.6 mb 0.00 in0.0 mm 0.00 in0.0 mm 0.00 in0.0 mm
12:43 AM 33.1°F0.6°C 21.8°F-5.7°C 63% 2.7 mph N4.3 kmh N 5.2 mph8.4 kmh 30.10 in1019.3 mb 0.00 in0.0 mm 0.00 in0.0 mm 0.00 in0.0 mm
12:42 AM 33.1°F0.6°C 21.8°F-5.7°C 63% 2.7 mph N4.3 kmh N 5.2 mph8.4 kmh 30.10 in1019.3 mb 0.00 in0.0 mm 0.00 in0.0 mm 0.00 in0.0 mm
12:41 AM 33.1°F0.6°C 21.8°F-5.7°C 63% 2.5 mph N4.0 kmh N 5.2 mph8.4 kmh 30.10 in1019.3 mb 0.00 in0.0 mm 0.00 in0.0 mm 0.00 in0.0 mm
12:40 AM 33.1°F0.6°C 21.8°F-5.7°C 63% 2.3 mph N3.7 kmh N 5.2 mph8.4 kmh 30.10 in1019.3 mb 0.00 in0.0 mm 0.00 in0.0 mm 0.00 in0.0 mm
12:39 AM 33.1°F0.6°C 21.8°F-5.7°C 63% 2.1 mph N3.4 kmh N 5.2 mph8.4 kmh 30.10 in1019.3 mb 0.00 in0.0 mm 0.00 in0.0 mm 0.00 in0.0 mm
12:38 AM 33.3°F0.7°C 22.0°F-5.6°C 63% 2.1 mph NNW3.4 kmh NNW 4.4 mph7.1 kmh 30.11 in1019.6 mb 0.00 in0.0 mm 0.00 in0.0 mm 0.00 in0.0 mm
12:37 AM 33.3°F0.7°C 21.6°F-5.8°C 62% 2.2 mph NW3.5 kmh NW 4.4 mph7.1 kmh 30.11 in1019.6 mb 0.00 in0.0 mm 0.00 in0.0 mm 0.00 in0.0 mm
12:36 AM 33.4°F0.8°C 21.8°F-5.7°C 62% 2.1 mph NW3.4 kmh NW 4.4 mph7.1 kmh 30.11 in1019.6 mb 0.00 in0.0 mm 0.00 in0.0 mm 0.00 in0.0 mm
12:35 AM 33.4°F0.8°C 21.8°F-5.7°C 62% 2.2 mph NW3.5 kmh NW 4.4 mph7.1 kmh 30.11 in1019.6 mb 0.00 in0.0 mm 0.00 in0.0 mm 0.00 in0.0 mm
12:34 AM 33.6°F0.9°C 22.0°F-5.6°C 62% 2.3 mph NW3.7 kmh NW 4.4 mph7.1 kmh 30.11 in1019.6 mb 0.00 in0.0 mm 0.00 in0.0 mm 0.00 in0.0 mm
12:33 AM 33.6°F0.9°C 22.0°F-5.6°C 62% 2.5 mph NNW4.0 kmh NNW 4.4 mph7.1 kmh 30.11 in1019.6 mb 0.00 in0.0 mm 0.00 in0.0 mm 0.00 in0.0 mm
12:32 AM 33.6°F0.9°C 22.0°F-5.6°C 62% 2.6 mph NNW4.2 kmh NNW 4.4 mph7.1 kmh 30.10 in1019.3 mb 0.00 in0.0 mm 0.00 in0.0 mm 0.00 in0.0 mm
12:31 AM 33.6°F0.9°C 22.0°F-5.6°C 62% 2.7 mph NNW4.3 kmh NNW 4.4 mph7.1 kmh 30.10 in1019.3 mb 0.00 in0.0 mm 0.00 in0.0 mm 0.00 in0.0 mm
12:30 AM 33.8°F1.0°C 21.8°F-5.7°C 61% 3.0 mph N4.8 kmh N 4.4 mph7.1 kmh 30.10 in1019.3 mb 0.00 in0.0 mm 0.00 in0.0 mm 0.00 in0.0 mm
12:29 AM 33.6°F0.9°C 22.0°F-5.6°C 62% 3.5 mph N5.6 kmh N 9.6 mph15.4 kmh 30.10 in1019.3 mb 0.00 in0.0 mm 0.00 in0.0 mm 0.00 in0.0 mm
12:28 AM 33.8°F1.0°C 21.8°F-5.7°C 61% 3.6 mph N5.8 kmh N 9.6 mph15.4 kmh 30.10 in1019.3 mb 0.00 in0.0 mm 0.00 in0.0 mm 0.00 in0.0 mm
12:27 AM 33.6°F0.9°C 22.4°F-5.3°C 63% 3.4 mph N5.5 kmh N 9.6 mph15.4 kmh 30.10 in1019.3 mb 0.00 in0.0 mm 0.00 in0.0 mm 0.00 in0.0 mm
12:26 AM 33.8°F1.0°C 22.1°F-5.5°C 62% 3.7 mph N6.0 kmh N 9.6 mph15.4 kmh 30.10 in1019.3 mb 0.00 in0.0 mm 0.00 in0.0 mm 0.00 in0.0 mm
12:25 AM 33.6°F0.9°C 22.4°F-5.3°C 63% 4.3 mph N6.9 kmh N 9.6 mph15.4 kmh 30.10 in1019.3 mb 0.00 in0.0 mm 0.00 in0.0 mm 0.00 in0.0 mm
12:24 AM 33.8°F1.0°C 22.1°F-5.5°C 62% 4.1 mph N6.6 kmh N 9.6 mph15.4 kmh 30.10 in1019.3 mb 0.00 in0.0 mm 0.00 in0.0 mm 0.00 in0.0 mm
12:23 AM 33.8°F1.0°C 22.1°F-5.5°C 62% 4.0 mph N6.4 kmh N 9.6 mph15.4 kmh 30.11 in1019.6 mb 0.00 in0.0 mm 0.00 in0.0 mm 0.00 in0.0 mm
12:22 AM 33.8°F1.0°C 22.1°F-5.5°C 62% 3.7 mph N6.0 kmh N 9.6 mph15.4 kmh 30.10 in1019.3 mb 0.00 in0.0 mm 0.00 in0.0 mm 0.00 in0.0 mm
12:21 AM 33.8°F1.0°C 22.1°F-5.5°C 62% 3.6 mph N5.8 kmh N 9.6 mph15.4 kmh 30.10 in1019.3 mb 0.00 in0.0 mm 0.00 in0.0 mm 0.00 in0.0 mm
12:20 AM 34.0°F1.1°C 22.3°F-5.4°C 62% 3.5 mph NNW5.6 kmh NNW 9.6 mph15.4 kmh 30.10 in1019.3 mb 0.00 in0.0 mm 0.00 in0.0 mm 0.00 in0.0 mm
12:19 AM 33.6°F0.9°C 22.7°F-5.2°C 64% 3.5 mph SW5.6 kmh SW 9.6 mph15.4 kmh 30.10 in1019.3 mb 0.00 in0.0 mm 0.00 in0.0 mm 0.00 in0.0 mm
12:18 AM 33.6°F0.9°C 22.7°F-5.2°C 64% 3.5 mph SSW5.6 kmh SSW 8.7 mph14.0 kmh 30.09 in1019.0 mb 0.00 in0.0 mm 0.00 in0.0 mm 0.00 in0.0 mm
12:17 AM 33.8°F1.0°C 22.1°F-5.5°C 62% 3.8 mph S6.1 kmh S 8.7 mph14.0 kmh 30.10 in1019.3 mb 0.00 in0.0 mm 0.00 in0.0 mm 0.00 in0.0 mm
12:16 AM 33.8°F1.0°C 22.1°F-5.5°C 62% 3.7 mph S6.0 kmh S 8.7 mph14.0 kmh 30.10 in1019.3 mb 0.00 in0.0 mm 0.00 in0.0 mm 0.00 in0.0 mm
12:15 AM 33.6°F0.9°C 22.4°F-5.3°C 63% 3.0 mph SSE4.8 kmh SSE 8.7 mph14.0 kmh 30.09 in1019.0 mb 0.00 in0.0 mm 0.00 in0.0 mm 0.00 in0.0 mm
12:14 AM 33.8°F1.0°C 21.8°F-5.7°C 61% 3.0 mph SE4.8 kmh SE 7.9 mph12.7 kmh 30.10 in1019.3 mb 0.00 in0.0 mm 0.00 in0.0 mm 0.00 in0.0 mm
12:13 AM 34.0°F1.1°C 21.9°F-5.6°C 61% 3.0 mph SE4.8 kmh SE 7.9 mph12.7 kmh 30.10 in1019.3 mb 0.00 in0.0 mm 0.00 in0.0 mm 0.00 in0.0 mm
12:12 AM 34.0°F1.1°C 21.9°F-5.6°C 61% 3.7 mph ESE6.0 kmh ESE 8.7 mph14.0 kmh 30.10 in1019.3 mb 0.00 in0.0 mm 0.00 in0.0 mm 0.00 in0.0 mm
12:11 AM 34.0°F1.1°C 21.9°F-5.6°C 61% 4.3 mph E6.9 kmh E 8.7 mph14.0 kmh 30.10 in1019.3 mb 0.00 in0.0 mm 0.00 in0.0 mm 0.00 in0.0 mm
12:10 AM 34.0°F1.1°C 21.9°F-5.6°C 61% 4.8 mph E7.7 kmh E 8.7 mph14.0 kmh 30.09 in1019.0 mb 0.00 in0.0 mm 0.00 in0.0 mm 0.00 in0.0 mm
12:09 AM 34.0°F1.1°C 21.9°F-5.6°C 61% 4.6 mph ENE7.4 kmh ENE 8.7 mph14.0 kmh 30.09 in1019.0 mb 0.00 in0.0 mm 0.00 in0.0 mm 0.00 in0.0 mm
12:08 AM 33.8°F1.0°C 21.8°F-5.7°C 61% 4.7 mph ENE7.6 kmh ENE 8.7 mph14.0 kmh 30.10 in1019.3 mb 0.00 in0.0 mm 0.00 in0.0 mm 0.00 in0.0 mm
12:07 AM 33.8°F1.0°C 21.8°F-5.7°C 61% 4.6 mph ENE7.4 kmh ENE 8.7 mph14.0 kmh 30.09 in1019.0 mb 0.00 in0.0 mm 0.00 in0.0 mm 0.00 in0.0 mm
12:06 AM 33.8°F1.0°C 21.8°F-5.7°C 61% 4.7 mph ENE7.6 kmh ENE 8.7 mph14.0 kmh 30.09 in1019.0 mb 0.00 in0.0 mm 0.00 in0.0 mm 0.00 in0.0 mm
12:05 AM 34.0°F1.1°C 21.9°F-5.6°C 61% 4.8 mph E7.7 kmh E 8.7 mph14.0 kmh 30.09 in1019.0 mb 0.00 in0.0 mm 0.00 in0.0 mm 0.00 in0.0 mm
12:04 AM 34.2°F1.2°C 22.1°F-5.5°C 61% 5.5 mph E8.9 kmh E 9.6 mph15.4 kmh 30.09 in1019.0 mb 0.00 in0.0 mm 0.00 in0.0 mm 0.00 in0.0 mm
12:03 AM 34.2°F1.2°C 22.1°F-5.5°C 61% 5.6 mph E9.0 kmh E 9.6 mph15.4 kmh 30.09 in1019.0 mb 0.00 in0.0 mm 0.00 in0.0 mm 0.00 in0.0 mm
12:02 AM 34.0°F1.1°C 21.9°F-5.6°C 61% 5.3 mph E8.5 kmh E 9.6 mph15.4 kmh 30.09 in1019.0 mb 0.00 in0.0 mm 0.00 in0.0 mm 0.00 in0.0 mm
12:01 AM 34.0°F1.1°C 21.9°F-5.6°C 61% 5.3 mph E8.5 kmh E 9.6 mph15.4 kmh 30.08 in1018.6 mb 0.00 in0.0 mm 0.00 in0.0 mm 0.00 in0.0 mm
12:00 AM 33.8°F1.0°C 22.1°F-5.5°C 62% 5.3 mph ENE8.5 kmh ENE 9.6 mph15.4 kmh 30.09 in1019.0 mb 0.00 in0.0 mm 0.00 in0.0 mm 0.00 in0.0 mm